Time;durP1;ratioP1;P1;durP2;ratioP2;P2;SDS_P1;SDS_P2;PMS_P1;PMS_P2;Temp;Humidity;BMP_temperature;BMP_pressure;BME280_temperature;BME280_humidity;BME280_pressure;Samples;Min_cycle;Max_cycle;Signal;HPM_P1;HPM_P2
2022/03/19 00:02:47;;;;;;;;;65.50;51.50;;;;;6.48;59.90;103269.12;146605;576;46919;-74
2022/03/19 00:05:39;;;;;;;;;62.75;50.00;;;;;6.48;59.60;103269.12;146610;576;46010;-78
2022/03/19 00:08:31;;;;;;;;;39.75;33.75;;;;;6.37;56.68;103269.63;146607;608;46013;-78
2022/03/19 00:11:24;;;;;;;;;22.25;20.50;;;;;6.26;57.84;103264.94;146610;583;45020;-72
2022/03/19 00:14:15;;;;;;;;;20.00;16.75;;;;;6.21;59.93;103266.13;146607;643;46015;-71
2022/03/19 00:17:10;;;;;;;;;12.50;10.00;;;;;6.13;61.19;103266.94;146609;569;46010;-71
2022/03/19 00:20:02;;;;;;;;;18.75;15.50;;;;;6.05;61.33;103262.62;146607;569;46012;-76
2022/03/19 00:22:55;;;;;;;;;15.50;12.25;;;;;5.97;62.88;103251.47;146613;710;45012;-73
2022/03/19 00:25:47;;;;;;;;;18.00;15.00;;;;;5.95;62.88;103253.87;146607;634;46012;-75
2022/03/19 00:28:42;;;;;;;;;15.50;13.00;;;;;5.94;63.14;103253.69;146608;611;46020;-74
2022/03/19 00:31:34;;;;;;;;;16.75;15.50;;;;;5.89;64.34;103247.13;146606;619;46920;-74
2022/03/19 00:34:26;;;;;;;;;18.00;15.75;;;;;5.82;64.31;103255.78;146608;604;46020;-74
2022/03/19 00:37:19;;;;;;;;;16.50;14.75;;;;;5.74;65.33;103247.25;146609;564;45017;-74
2022/03/19 00:40:12;;;;;;;;;19.25;14.50;;;;;5.63;65.48;103249.34;146609;650;46010;-75
2022/03/19 00:43:04;;;;;;;;;21.00;18.00;;;;;5.52;66.30;103251.66;146608;614;46012;-74
2022/03/19 00:45:56;;;;;;;;;26.75;22.25;;;;;5.43;66.82;103240.34;146607;595;46021;-74
2022/03/19 00:48:48;;;;;;;;;20.50;18.75;;;;;5.39;66.24;103233.03;146608;612;46014;-70
2022/03/19 00:51:40;;;;;;;;;17.50;15.25;;;;;5.36;66.85;103226.59;146607;571;46020;-70
2022/03/19 00:54:33;;;;;;;;;20.25;17.50;;;;;5.33;66.79;103222.97;146609;607;46016;-73
2022/03/19 00:57:25;;;;;;;;;22.00;18.25;;;;;5.34;67.11;103229.00;146608;586;46010;-73
2022/03/19 01:00:18;;;;;;;;;21.50;17.75;;;;;5.32;66.53;103223.69;146607;600;46013;-73
2022/03/19 01:03:11;;;;;;;;;24.25;19.75;;;;;5.35;65.95;103225.69;146608;598;46020;-74
2022/03/19 01:06:02;;;;;;;;;25.75;22.00;;;;;5.41;65.62;103217.75;146606;575;46013;-74
2022/03/19 01:08:54;;;;;;;;;28.75;23.50;;;;;5.47;65.78;103216.75;146609;592;46010;-74
2022/03/19 01:11:46;;;;;;;;;26.75;24.00;;;;;5.57;65.67;103214.47;146606;572;46012;-73
2022/03/19 01:14:38;;;;;;;;;22.75;20.00;;;;;5.65;66.05;103214.41;146610;590;45025;-72
2022/03/19 01:17:31;;;;;;;;;34.50;31.00;;;;;5.71;65.40;103204.81;146608;580;45016;-73
2022/03/19 01:20:24;;;;;;;;;21.25;20.75;;;;;5.79;65.03;103203.97;146610;565;45020;-72
2022/03/19 01:23:16;;;;;;;;;22.00;21.00;;;;;5.84;65.03;103205.41;146607;584;45017;-75
2022/03/19 01:26:08;;;;;;;;;27.00;22.25;;;;;5.88;64.43;103198.91;146610;636;45915;-74
2022/03/19 01:29:00;;;;;;;;;25.25;20.75;;;;;5.93;64.15;103205.53;146607;605;46012;-77
2022/03/19 01:31:52;;;;;;;;;26.50;23.75;;;;;5.97;65.08;103207.69;146610;629;45027;-72
2022/03/19 01:34:44;;;;;;;;;22.50;19.50;;;;;5.98;64.09;103199.19;146608;573;46014;-73
2022/03/19 01:37:37;;;;;;;;;23.25;21.00;;;;;5.96;64.74;103191.31;146608;588;46010;-71
2022/03/19 01:40:29;;;;;;;;;25.00;21.75;;;;;6.01;64.68;103189.22;146625;628;45016;-73
2022/03/19 01:43:21;;;;;;;;;19.75;18.50;;;;;6.03;63.98;103189.41;146627;642;45020;-73
2022/03/19 01:46:13;;;;;;;;;17.25;16.25;;;;;6.00;63.46;103185.75;146630;604;45012;-72
2022/03/19 01:49:06;;;;;;;;;18.00;16.00;;;;;5.97;63.46;103190.56;146630;583;45029;-72
2022/03/19 01:51:59;;;;;;;;;21.25;16.75;;;;;5.93;63.22;103191.00;146630;566;45016;-71
2022/03/19 01:54:53;;;;;;;;;23.00;21.75;;;;;5.89;64.19;103188.81;146627;582;46012;-71
2022/03/19 01:57:49;;;;;;;;;16.00;14.75;;;;;5.86;63.29;103190.13;146626;705;45016;-72
2022/03/19 02:00:42;;;;;;;;;21.00;17.50;;;;;5.82;63.96;103190.53;146627;595;45021;-75
2022/03/19 02:03:34;;;;;;;;;24.75;21.25;;;;;5.81;63.75;103187.03;146628;606;45016;-74
2022/03/19 02:06:29;;;;;;;;;19.50;17.00;;;;;5.82;63.95;103198.25;146629;773;46020;-74
2022/03/19 02:09:21;;;;;;;;;15.75;15.75;;;;;5.78;62.39;103194.44;146627;599;45016;-71
2022/03/19 02:12:14;;;;;;;;;23.25;23.25;;;;;5.77;62.66;103182.31;146629;583;45010;-72
2022/03/19 02:15:08;;;;;;;;;22.75;20.25;;;;;5.83;62.77;103187.22;146626;720;45017;-72
2022/03/19 02:18:00;;;;;;;;;28.25;25.00;;;;;5.88;63.28;103184.38;146627;565;45020;-72
2022/03/19 02:20:52;;;;;;;;;21.50;18.50;;;;;5.95;63.16;103183.41;146628;576;45013;-72
2022/03/19 02:26:54;;;;;;;;;21.75;20.25;;;;;6.04;63.75;103178.34;146627;650;45012;-76
2022/03/19 02:29:47;;;;;;;;;25.25;23.00;;;;;6.05;63.64;103178.53;146628;581;45010;-76
2022/03/19 02:32:39;;;;;;;;;20.75;18.25;;;;;6.05;63.36;103170.81;146626;632;45016;-76
2022/03/19 02:35:32;;;;;;;;;21.50;18.00;;;;;6.06;63.71;103184.59;146628;626;45029;-76
2022/03/19 02:38:23;;;;;;;;;20.50;17.00;;;;;6.06;63.39;103174.31;146625;623;45016;-76
2022/03/19 02:41:16;;;;;;;;;15.75;15.00;;;;;6.05;64.18;103175.97;146608;564;46020;-76
2022/03/19 02:44:09;;;;;;;;;18.00;16.25;;;;;6.03;63.43;103181.69;146607;611;46012;-76
2022/03/19 02:47:08;;;;;;;;;16.00;13.75;;;;;5.93;62.33;103180.69;146608;565;46010;-76
2022/03/19 02:50:00;;;;;;;;;17.00;14.75;;;;;5.87;62.42;103179.97;146609;582;46015;-72
2022/03/19 02:52:53;;;;;;;;;18.50;17.25;;;;;5.73;62.88;103162.09;146610;670;46012;-72
2022/03/19 02:55:47;;;;;;;;;16.75;15.00;;;;;5.77;63.75;103170.34;146609;669;45016;-73
2022/03/19 02:58:39;;;;;;;;;22.75;20.75;;;;;5.79;62.88;103173.06;146610;573;45043;-73
2022/03/19 03:01:31;;;;;;;;;28.50;25.75;;;;;5.86;63.23;103178.16;146607;608;46014;-73
2022/03/19 03:04:24;;;;;;;;;41.00;31.50;;;;;5.92;62.89;103184.00;146610;650;45020;-73
2022/03/19 03:07:16;;;;;;;;;19.25;18.00;;;;;5.95;63.04;103179.22;146610;644;45014;-73
2022/03/19 03:10:09;;;;;;;;;21.75;17.75;;;;;5.96;63.74;103183.59;146608;608;46020;-72
2022/03/19 03:13:01;;;;;;;;;26.00;23.75;;;;;5.96;63.60;103181.03;146607;591;46016;-72
2022/03/19 03:15:53;;;;;;;;;22.75;21.25;;;;;5.91;63.74;103174.41;146610;608;46010;-73
2022/03/19 03:18:45;;;;;;;;;26.00;19.25;;;;;5.86;64.01;103173.03;146609;569;45016;-73
2022/03/19 03:21:41;;;;;;;;;20.50;16.00;;;;;5.78;64.17;103177.31;146610;624;46010;-72
2022/03/19 03:24:34;;;;;;;;;22.75;18.75;;;;;5.73;64.57;103180.13;146609;628;45030;-72
2022/03/19 03:27:26;;;;;;;;;19.50;17.00;;;;;5.69;64.53;103181.44;146610;660;45021;-72
2022/03/19 03:30:20;;;;;;;;;20.50;20.25;;;;;5.68;64.51;103176.16;146606;622;46016;-72
2022/03/19 03:33:12;;;;;;;;;40.00;33.50;;;;;5.68;64.66;103178.72;146609;635;45020;-72
2022/03/19 03:36:04;;;;;;;;;32.50;28.50;;;;;5.67;64.89;103170.09;146607;657;46013;-72
2022/03/19 03:38:56;;;;;;;;;30.75;26.50;;;;;5.68;64.42;103181.28;146611;565;45027;-70
2022/03/19 03:41:49;;;;;;;;;25.50;22.25;;;;;5.68;64.69;103189.03;146608;600;46017;-71
2022/03/19 03:44:42;;;;;;;;;24.50;19.25;;;;;5.69;64.97;103193.41;146610;594;46010;-70
2022/03/19 03:47:34;;;;;;;;;27.75;25.50;;;;;5.66;65.03;103191.41;146605;569;46016;-71
2022/03/19 03:50:26;;;;;;;;;22.75;19.75;;;;;5.62;64.47;103191.81;146610;588;46010;-70
2022/03/19 03:53:18;;;;;;;;;17.00;16.75;;;;;5.59;65.55;103181.19;146610;624;45016;-73
2022/03/19 03:56:12;;;;;;;;;24.75;22.25;;;;;5.57;66.67;103187.81;146610;620;46012;-70
2022/03/19 03:59:04;;;;;;;;;17.00;16.25;;;;;5.54;66.03;103197.78;146605;628;46920;-71
2022/03/19 04:01:57;;;;;;;;;18.25;16.25;;;;;5.47;65.22;103192.69;146608;571;46020;-72
2022/03/19 04:04:49;;;;;;;;;21.50;17.75;;;;;5.48;66.47;103203.19;146608;622;45017;-72
2022/03/19 04:07:41;;;;;;;;;17.75;16.50;;;;;5.48;65.80;103197.09;146612;626;45020;-71
2022/03/19 04:10:33;;;;;;;;;21.50;17.50;;;;;5.51;65.52;103203.53;146605;641;46016;-73
2022/03/19 04:13:25;;;;;;;;;17.50;16.25;;;;;5.51;65.26;103198.38;146608;577;46021;-75
2022/03/19 04:16:17;;;;;;;;;19.75;16.75;;;;;5.53;65.15;103199.44;146608;633;46012;-74
2022/03/19 04:19:09;;;;;;;;;18.25;18.25;;;;;5.54;65.31;103205.50;146608;616;46011;-73
2022/03/19 04:22:01;;;;;;;;;33.25;28.00;;;;;5.56;66.53;103196.28;146608;600;46012;-74
2022/03/19 04:24:53;;;;;;;;;19.25;19.00;;;;;5.54;66.64;103201.28;146609;564;46020;-72
2022/03/19 04:27:48;;;;;;;;;30.00;25.75;;;;;5.48;67.72;103204.81;146606;578;46016;-72
2022/03/19 04:30:41;;;;;;;;;28.00;26.25;;;;;5.39;68.19;103208.94;146608;625;46020;-71
2022/03/19 04:33:33;;;;;;;;;30.00;26.00;;;;;5.32;66.89;103202.19;146607;619;46017;-70
2022/03/19 04:36:30;;;;;;;;;22.50;19.25;;;;;5.35;67.44;103205.09;146611;618;45020;-77
2022/03/19 04:39:23;;;;;;;;;23.50;23.25;;;;;5.40;67.58;103214.25;146606;634;46016;-79
2022/03/19 04:42:16;;;;;;;;;18.50;18.00;;;;;5.43;67.66;103206.88;146609;601;46021;-75
2022/03/19 04:45:09;;;;;;;;;24.25;21.00;;;;;5.44;67.01;103213.84;146607;577;45016;-75
2022/03/19 04:48:01;;;;;;;;;18.00;17.00;;;;;5.46;66.29;103217.53;146610;598;46010;-76
2022/03/19 04:50:53;;;;;;;;;19.50;16.75;;;;;5.44;66.35;103202.66;146605;576;46920;-76
2022/03/19 04:53:51;;;;;;;;;19.75;19.00;;;;;5.53;66.39;103211.41;146607;682;46010;-76
2022/03/19 04:56:44;;;;;;;;;23.25;19.25;;;;;5.57;66.54;103214.47;146606;569;46016;-80
2022/03/19 04:59:37;;;;;;;;;17.75;15.75;;;;;5.62;66.51;103219.22;146609;604;46020;-75
2022/03/19 05:02:29;;;;;;;;;21.25;19.25;;;;;5.62;65.91;103214.09;146608;579;46012;-75
2022/03/19 05:05:24;;;;;;;;;26.75;21.00;;;;;5.61;66.25;103220.91;146608;599;46020;-76
2022/03/19 05:08:17;;;;;;;;;23.00;20.00;;;;;5.58;66.61;103228.28;146606;580;46016;-75
2022/03/19 05:11:16;;;;;;;;;21.25;20.25;;;;;5.54;66.39;103232.16;146608;564;46011;-79
2022/03/19 05:14:08;;;;;;;;;22.00;19.50;;;;;5.52;66.31;103223.34;146607;600;46016;-79
2022/03/19 05:17:00;;;;;;;;;51.50;41.50;;;;;5.57;66.56;103229.91;146611;592;46010;-80
2022/03/19 05:19:52;;;;;;;;;82.00;65.33;;;;;5.61;66.47;103227.66;146610;572;46012;-79
2022/03/19 05:22:45;;;;;;;;;49.00;35.25;;;;;5.64;67.15;103231.53;146608;613;46020;-76
2022/03/19 05:25:37;;;;;;;;;41.00;34.25;;;;;5.61;69.52;103233.75;146605;570;46919;-75
2022/03/19 05:28:30;;;;;;;;;39.25;36.00;;;;;5.57;62.79;103222.19;146612;665;46010;-75
2022/03/19 05:31:21;;;;;;;;;56.00;43.00;;;;;5.62;64.20;103242.41;146606;594;46915;-71
2022/03/19 05:34:31;;;;;;;;;37.25;32.75;;;;;5.66;64.80;103234.25;146609;599;46010;-70
2022/03/19 05:37:23;;;;;;;;;24.00;24.00;;;;;5.70;64.68;103231.28;146607;599;46016;-71
2022/03/19 05:40:16;;;;;;;;;27.25;25.25;;;;;5.69;64.58;103235.50;146610;575;46010;-71
2022/03/19 05:43:08;;;;;;;;;24.75;24.75;;;;;5.70;63.28;103234.78;146606;628;46016;-73
2022/03/19 05:46:00;;;;;;;;;33.25;31.25;;;;;5.72;64.38;103242.66;146611;575;45020;-71
2022/03/19 05:48:52;;;;;;;;;27.50;21.50;;;;;5.78;64.38;103246.81;146607;683;45028;-71
2022/03/19 05:51:45;;;;;;;;;25.50;20.25;;;;;5.76;63.31;103235.47;146610;589;46010;-70
2022/03/19 05:54:37;;;;;;;;;25.50;22.25;;;;;5.72;63.51;103240.09;146607;570;45919;-71
2022/03/19 05:57:29;;;;;;;;;24.25;20.50;;;;;5.67;64.32;103244.75;146608;605;46020;-70
2022/03/19 06:00:21;;;;;;;;;26.25;21.75;;;;;5.67;64.36;103248.94;146607;605;46016;-69
2022/03/19 06:03:13;;;;;;;;;21.50;20.75;;;;;5.65;64.24;103247.88;146610;601;46010;-70
2022/03/19 06:06:05;;;;;;;;;31.25;29.00;;;;;5.65;64.83;103247.88;146608;744;46014;-73
2022/03/19 06:08:58;;;;;;;;;28.50;26.50;;;;;5.64;64.49;103252.12;146610;596;46020;-73
2022/03/19 06:11:50;;;;;;;;;49.00;39.25;;;;;5.68;65.34;103263.66;146610;645;45016;-73
2022/03/19 06:14:42;;;;;;;;;64.00;50.25;;;;;5.64;65.69;103257.28;146610;590;46020;-74
2022/03/19 06:17:34;;;;;;;;;56.25;44.00;;;;;5.60;65.43;103254.16;146610;577;45016;-71
2022/03/19 06:20:26;;;;;;;;;129.33;97.67;;;;;5.55;64.98;103252.00;146615;697;45020;-71
2022/03/19 06:23:18;;;;;;;;;231.75;191.25;;;;;5.54;65.49;103249.25;146618;643;46012;-72
2022/03/19 06:26:10;;;;;;;;;112.33;89.33;;;;;5.53;65.24;103250.91;146618;570;45030;-73
2022/03/19 06:29:02;;;;;;;;;74.25;57.50;;;;;5.50;65.65;103266.00;146613;662;45016;-74
2022/03/19 06:31:54;;;;;;;;;63.25;49.75;;;;;5.45;65.93;103259.44;146606;608;46915;-73
2022/03/19 06:34:47;;;;;;;;;23.00;20.50;;;;;5.44;66.49;103265.31;146606;592;46016;-73
2022/03/19 06:37:39;;;;;;;;;22.25;20.25;;;;;5.41;66.48;103270.13;146611;609;46010;-72
2022/03/19 06:40:32;;;;;;;;;21.25;20.50;;;;;5.35;66.94;103254.00;146628;601;45013;-72
2022/03/19 06:43:24;;;;;;;;;28.25;24.75;;;;;5.33;66.58;103263.22;146623;635;45915;-76
2022/03/19 06:46:16;;;;;;;;;24.75;22.25;;;;;5.30;66.80;103270.59;146627;593;45016;-73
2022/03/19 06:49:09;;;;;;;;;25.00;25.00;;;;;5.31;67.01;103274.97;146631;614;45010;-71
2022/03/19 06:52:01;;;;;;;;;27.75;27.00;;;;;5.32;67.71;103272.56;146628;606;45016;-70
2022/03/19 06:54:53;;;;;;;;;26.50;23.25;;;;;5.35;67.56;103281.38;146626;570;45020;-71
2022/03/19 06:57:45;;;;;;;;;26.00;21.75;;;;;5.33;67.05;103270.94;146625;581;45014;-75
2022/03/19 07:00:39;;;;;;;;;28.50;27.75;;;;;5.33;67.44;103278.66;146631;581;45010;-73
2022/03/19 07:03:31;;;;;;;;;32.25;27.00;;;;;5.32;67.20;103276.78;146625;566;45016;-71
2022/03/19 07:06:24;;;;;;;;;32.25;22.00;;;;;5.31;66.14;103281.03;146630;639;45010;-71
2022/03/19 07:09:16;;;;;;;;;25.50;22.50;;;;;5.36;66.67;103279.00;146625;619;45017;-71
2022/03/19 07:12:11;;;;;;;;;34.00;30.75;;;;;5.43;66.27;103268.66;146631;647;44915;-80
2022/03/19 07:15:03;;;;;;;;;32.75;27.00;;;;;5.55;67.61;103269.09;146629;571;45016;-82
2022/03/19 07:17:56;;;;;;;;;33.75;30.50;;;;;5.64;67.71;103267.56;146630;572;45021;-80
2022/03/19 07:20:50;;;;;;;;;29.00;27.00;;;;;5.70;67.17;103273.41;146630;576;44919;-75
2022/03/19 07:23:42;;;;;;;;;66.25;48.00;;;;;5.75;66.89;103272.22;146630;611;45013;-80
2022/03/19 07:26:34;;;;;;;;;57.00;42.25;;;;;5.78;65.67;103269.09;146624;643;45016;-74
2022/03/19 07:29:26;;;;;;;;;87.67;72.67;;;;;5.57;66.16;103214.47;146628;661;45020;-73
2022/03/19 07:32:18;;;;;;;;;77.50;57.00;;;;;5.94;65.67;103258.84;146628;569;45016;-78
2022/03/19 07:35:15;;;;;;;;;231.25;194.75;;;;;5.99;64.63;103252.56;146635;602;45010;-75
2022/03/19 07:38:08;;;;;;;;;276.25;227.75;;;;;6.07;64.71;103255.97;146639;575;45012;-70
2022/03/19 07:44:09;;;;;;;;;64.25;51.00;;;;;6.25;65.18;103265.69;146609;586;45016;-72
2022/03/19 07:47:02;;;;;;;;;62.50;49.50;;;;;6.31;63.59;103253.50;146610;566;46012;-77
2022/03/19 07:49:54;;;;;;;;;162.75;136.50;;;;;6.35;63.41;103252.16;146612;563;45016;-75
2022/03/19 07:52:47;;;;;;;;;66.50;52.00;;;;;6.37;61.88;103248.09;146615;565;45020;-76
2022/03/19 07:55:39;;;;;;;;;44.25;34.75;;;;;6.36;62.02;103224.00;146608;611;45017;-74
2022/03/19 07:58:31;;;;;;;;;68.00;54.50;;;;;6.37;62.46;103238.69;146611;590;46012;-73
2022/03/19 08:01:24;;;;;;;;;81.00;66.33;;;;;6.40;63.11;103246.75;146610;639;45017;-75
2022/03/19 08:04:16;;;;;;;;;65.00;53.75;;;;;6.43;63.74;103244.50;146613;575;46020;-75
2022/03/19 08:07:08;;;;;;;;;32.00;28.50;;;;;6.50;63.81;103233.19;146607;591;45016;-78
2022/03/19 08:10:01;;;;;;;;;32.50;31.50;;;;;6.63;62.02;103233.75;146612;570;45012;-73
2022/03/19 08:12:53;;;;;;;;;35.50;33.00;;;;;6.75;63.21;103225.50;146610;586;46016;-79
2022/03/19 08:15:45;;;;;;;;;48.75;40.75;;;;;6.84;62.99;103229.97;146607;603;46020;-81
2022/03/19 08:18:37;;;;;;;;;38.25;34.00;;;;;6.89;62.38;103246.87;146605;615;46016;-76
2022/03/19 08:21:30;;;;;;;;;43.25;35.25;;;;;6.90;62.26;103230.63;146613;580;45020;-76
2022/03/19 08:24:25;;;;;;;;;37.00;34.00;;;;;6.93;63.10;103223.22;146607;632;46014;-75
2022/03/19 08:27:16;;;;;;;;;36.50;32.25;;;;;6.96;61.90;103227.78;146610;725;45051;-78
2022/03/19 08:30:10;;;;;;;;;40.00;32.00;;;;;6.91;61.76;103216.97;146609;635;45016;-75
2022/03/19 08:33:02;;;;;;;;;36.75;33.50;;;;;6.84;62.04;103218.75;146607;590;46021;-76
2022/03/19 08:35:55;;;;;;;;;37.50;33.75;;;;;6.70;61.88;103215.63;146606;583;46016;-76
2022/03/19 08:41:58;;;;;;;;;47.00;36.50;;;;;6.67;62.36;103211.81;146608;576;46016;-76
2022/03/19 08:44:51;;;;;;;;;34.75;30.25;;;;;6.74;60.98;103209.13;146608;574;46021;-76
2022/03/19 08:47:43;;;;;;;;;41.75;36.00;;;;;6.81;61.67;103193.56;146608;589;46014;-76
2022/03/19 08:50:35;;;;;;;;;54.50;46.25;;;;;6.93;62.17;103202.59;146610;588;46010;-76
2022/03/19 08:53:28;;;;;;;;;49.75;38.00;;;;;7.07;61.92;103196.31;146609;566;46014;-76
2022/03/19 08:56:20;;;;;;;;;42.00;37.00;;;;;7.22;61.72;103189.22;146610;675;46010;-76
2022/03/19 08:59:12;;;;;;;;;51.75;40.50;;;;;7.31;57.58;103182.44;146608;629;46012;-76
2022/03/19 09:02:05;;;;;;;;;19.75;18.75;;;;;7.21;50.39;103159.03;146612;572;45012;-77
2022/03/19 09:04:57;;;;;;;;;15.50;14.75;;;;;7.17;49.36;103175.87;146608;787;46016;-76
2022/03/19 09:07:49;;;;;;;;;17.25;15.00;;;;;7.04;49.00;103174.41;146610;580;46011;-78
2022/03/19 09:10:42;;;;;;;;;22.00;18.00;;;;;6.69;49.14;103128.69;146611;579;45032;-77
2022/03/19 09:13:36;;;;;;;;;21.75;19.50;;;;;6.85;51.11;103179.31;146611;576;46010;-75
2022/03/19 09:16:28;;;;;;;;;20.25;15.75;;;;;6.86;50.41;103170.84;146609;574;46012;-76
2022/03/19 09:19:20;;;;;;;;;21.25;20.00;;;;;6.88;51.62;103172.81;146610;583;45020;-77
2022/03/19 09:22:12;;;;;;;;;38.00;33.25;;;;;6.89;52.38;103182.37;146604;570;46919;-77
2022/03/19 09:25:04;;;;;;;;;30.50;26.00;;;;;6.88;50.44;103177.97;146609;633;46020;-76
2022/03/19 09:27:56;;;;;;;;;53.25;44.25;;;;;6.89;50.62;103181.47;146606;677;46012;-76
2022/03/19 09:30:48;;;;;;;;;28.50;26.50;;;;;6.90;51.99;103176.47;146611;609;45021;-76
2022/03/19 09:33:41;;;;;;;;;27.50;23.00;;;;;6.94;49.35;103180.28;146608;608;45016;-76
2022/03/19 09:36:33;;;;;;;;;21.50;20.25;;;;;6.96;50.76;103177.88;146608;672;46020;-76
2022/03/19 09:39:25;;;;;;;;;41.00;35.25;;;;;6.95;51.77;103166.66;146609;566;45016;-77
2022/03/19 09:42:17;;;;;;;;;22.50;20.00;;;;;6.92;48.71;103171.50;146609;639;46020;-77
2022/03/19 09:45:10;;;;;;;;;17.25;16.50;;;;;6.87;48.53;103162.34;146606;630;46017;-76
2022/03/19 09:48:02;;;;;;;;;26.00;20.25;;;;;6.81;47.17;103164.28;146609;623;46020;-76
2022/03/19 09:50:55;;;;;;;;;25.50;23.00;;;;;6.83;49.50;103176.59;146603;565;47919;-78
2022/03/19 09:53:48;;;;;;;;;23.75;19.25;;;;;6.87;50.39;103176.16;146609;577;46010;-75
2022/03/19 09:56:41;;;;;;;;;19.75;18.50;;;;;6.88;47.75;103180.53;146610;570;46012;-75
2022/03/19 09:59:36;;;;;;;;;16.25;15.75;;;;;6.82;46.98;103182.50;146610;569;46020;-76
2022/03/19 10:02:29;;;;;;;;;34.00;31.00;;;;;6.80;49.69;103175.34;146607;570;46016;-76
2022/03/19 10:08:41;;;;;;;;;23.75;22.00;;;;;6.65;48.82;103154.91;146610;564;45017;-75
2022/03/19 10:11:39;;;;;;;;;25.00;22.25;;;;;6.65;50.48;103160.06;146609;569;46010;-75
2022/03/19 10:14:32;;;;;;;;;29.25;28.50;;;;;6.70;50.91;103153.75;146605;638;47919;-76
2022/03/19 10:17:36;;;;;;;;;28.00;23.50;;;;;6.83;51.96;103165.37;146609;583;46020;-77
2022/03/19 10:20:28;;;;;;;;;22.25;20.50;;;;;6.91;49.98;103167.97;146608;601;46016;-78
2022/03/19 10:23:32;;;;;;;;;25.00;23.25;;;;;6.99;51.78;103166.22;146609;564;46021;-76
2022/03/19 10:26:35;;;;;;;;;23.25;21.50;;;;;7.06;53.33;103152.28;146610;621;45042;-76
2022/03/19 10:29:35;;;;;;;;;26.75;22.75;;;;;7.14;50.59;103149.75;146607;588;46020;-75
2022/03/19 10:32:31;;;;;;;;;37.75;34.00;;;;;7.22;51.16;103147.94;146609;667;46012;-77
2022/03/19 10:35:35;;;;;;;;;30.75;27.50;;;;;7.27;50.31;103139.03;146606;610;46020;-76
2022/03/19 10:38:28;;;;;;;;;23.50;21.00;;;;;7.31;48.11;103148.91;146605;607;46016;-76
2022/03/19 10:41:23;;;;;;;;;22.25;22.25;;;;;7.26;47.24;103144.94;146610;603;45020;-77
2022/03/19 10:44:27;;;;;;;;;28.75;25.50;;;;;7.24;49.08;103141.28;146607;643;46017;-75
2022/03/19 10:47:25;;;;;;;;;33.75;31.25;;;;;7.12;46.67;103137.44;146610;604;46010;-77
2022/03/19 10:50:27;;;;;;;;;37.00;30.50;;;;;7.13;49.32;103127.28;146608;659;46015;-77
2022/03/19 10:53:20;;;;;;;;;24.25;22.50;;;;;7.17;49.77;103131.09;146610;575;45037;-76
2022/03/19 10:56:14;;;;;;;;;40.50;33.50;;;;;7.21;48.13;103120.31;146610;635;45016;-75
2022/03/19 10:59:06;;;;;;;;;51.00;40.50;;;;;7.22;47.95;103124.72;146610;702;46021;-75
2022/03/19 11:02:01;;;;;;;;;45.75;35.75;;;;;7.14;47.86;103120.47;146607;591;46016;-75
2022/03/19 11:04:54;;;;;;;;;24.00;21.25;;;;;7.12;48.89;103122.88;146608;564;46010;-74
2022/03/19 11:07:49;;;;;;;;;28.00;24.75;;;;;7.18;46.65;103120.91;146609;719;45016;-76
2022/03/19 11:10:43;;;;;;;;;34.00;32.25;;;;;7.24;46.53;103119.72;146611;713;45020;-77
2022/03/19 11:13:37;;;;;;;;;28.50;24.75;;;;;7.21;48.34;103112.59;146608;597;46012;-77
2022/03/19 11:16:34;;;;;;;;;19.25;18.25;;;;;7.23;46.09;103095.59;146611;591;45020;-75
2022/03/19 11:19:27;;;;;;;;;16.00;14.25;;;;;7.42;43.38;103100.06;146607;625;46016;-74
2022/03/19 11:22:21;;;;;;;;;25.00;24.25;;;;;7.61;46.97;103086.56;146608;596;46010;-76
2022/03/19 11:25:22;;;;;;;;;27.50;25.50;;;;;7.78;47.09;103090.84;146606;638;46016;-74
2022/03/19 11:28:15;;;;;;;;;39.00;34.50;;;;;7.91;43.41;103087.81;146612;569;45021;-74
2022/03/19 11:31:10;;;;;;;;;24.25;23.00;;;;;7.97;43.56;103100.44;146609;631;45016;-74
2022/03/19 11:34:21;;;;;;;;;20.00;18.50;;;;;7.89;42.94;103089.34;146610;584;45020;-75
2022/03/19 11:37:13;;;;;;;;;32.25;32.00;;;;;7.94;45.34;103075.19;146606;717;46017;-75
2022/03/19 11:40:35;;;;;;;;;33.75;30.50;;;;;7.82;47.09;103036.16;146611;563;46010;-74
2022/03/19 11:43:44;;;;;;;;;23.50;22.50;;;;;8.18;45.12;103075.81;146609;605;46012;-75
2022/03/19 11:47:13;;;;;;;;;25.00;23.50;;;;;7.79;45.13;103032.38;146610;577;46012;-74
2022/03/19 11:50:06;;;;;;;;;23.25;20.75;;;;;7.94;43.38;103075.19;146607;683;46013;-75
2022/03/19 11:53:09;;;;;;;;;37.75;31.75;;;;;7.84;44.34;103072.47;146610;573;46010;-75
2022/03/19 11:56:05;;;;;;;;;17.25;16.25;;;;;7.78;43.32;103070.19;146608;581;46012;-74
2022/03/19 11:58:57;;;;;;;;;40.25;35.25;;;;;7.72;43.24;103071.25;146610;575;46021;-75
2022/03/19 12:02:12;;;;;;;;;40.00;34.50;;;;;7.49;45.66;103020.81;146611;582;45919;-75
2022/03/19 12:05:22;;;;;;;;;57.25;45.50;;;;;7.84;43.77;103060.47;146606;701;46013;-74
2022/03/19 12:08:31;;;;;;;;;27.50;26.25;;;;;7.87;44.89;103062.44;146607;591;46016;-76
2022/03/19 12:11:24;;;;;;;;;25.25;23.50;;;;;7.93;44.44;103060.47;146610;638;45021;-76
2022/03/19 12:14:16;;;;;;;;;24.25;22.00;;;;;8.04;42.26;103054.69;146608;566;45017;-77
2022/03/19 12:17:35;;;;;;;;;30.75;29.75;;;;;8.29;42.63;103054.53;146611;563;46010;-76
2022/03/19 12:20:27;;;;;;;;;41.50;34.50;;;;;8.33;40.02;103057.53;146605;566;46018;-75
2022/03/19 12:23:20;;;;;;;;;37.50;31.25;;;;;8.40;44.05;103056.50;146610;603;45020;-76
2022/03/19 12:26:12;;;;;;;;;42.25;35.00;;;;;8.41;42.72;103047.06;146607;589;46016;-75
2022/03/19 12:29:10;;;;;;;;;76.33;63.00;;;;;8.41;44.26;103052.22;146611;630;45027;-75
2022/03/19 12:32:02;;;;;;;;;37.25;32.50;;;;;8.39;43.88;103041.75;146612;571;46016;-75
2022/03/19 12:35:04;;;;;;;;;56.50;46.25;;;;;8.43;46.73;103042.97;146608;554;45049;-75
2022/03/19 12:38:01;;;;;;;;;25.25;23.25;;;;;8.37;42.44;103037.16;146607;620;46016;-75
2022/03/19 12:44:10;;;;;;;;;28.50;25.25;;;;;8.09;41.26;103043.13;146628;619;45918;-75
2022/03/19 12:47:05;;;;;;;;;36.25;32.00;;;;;7.99;42.89;103039.50;146631;603;45010;-75
2022/03/19 12:49:58;;;;;;;;;15.25;15.25;;;;;7.85;44.30;103040.75;146624;614;45919;-75
2022/03/19 12:52:50;;;;;;;;;47.25;40.00;;;;;7.81;45.69;103046.34;146630;563;45010;-75
2022/03/19 12:55:43;;;;;;;;;20.50;19.75;;;;;7.69;43.63;103037.38;146628;617;45016;-75
2022/03/19 12:58:45;;;;;;;;;28.50;27.25;;;;;7.57;44.17;103042.22;146629;587;45010;-75
2022/03/19 13:01:38;;;;;;;;;35.50;31.75;;;;;7.53;45.97;103042.66;146627;609;45016;-75
2022/03/19 13:04:35;;;;;;;;;31.50;26.50;;;;;7.63;44.97;103041.19;146629;737;45021;-75
2022/03/19 13:07:27;;;;;;;;;22.00;20.75;;;;;7.87;46.23;103029.78;146623;597;46919;-77
2022/03/19 13:10:19;;;;;;;;;24.25;24.00;;;;;8.06;44.56;103031.59;146629;570;45021;-76
2022/03/19 13:13:12;;;;;;;;;33.00;30.75;;;;;8.15;45.02;103031.56;146628;625;45012;-75
2022/03/19 13:16:04;;;;;;;;;24.75;24.25;;;;;8.09;42.99;103027.63;146622;649;46915;-76
2022/03/19 13:19:08;;;;;;;;;49.50;38.50;;;;;8.12;42.80;103024.44;146630;581;45013;-76
2022/03/19 13:22:01;;;;;;;;;29.50;27.75;;;;;8.23;41.43;103017.75;146629;611;45010;-74
2022/03/19 13:24:58;;;;;;;;;25.25;21.50;;;;;8.51;40.58;103019.66;146626;567;45017;-74
2022/03/19 13:27:56;;;;;;;;;17.75;17.00;;;;;8.78;39.47;103011.06;146627;610;46010;-74
2022/03/19 13:30:50;;;;;;;;;32.75;29.25;;;;;8.92;39.28;103024.38;146628;569;45016;-75
2022/03/19 13:33:45;;;;;;;;;34.00;26.50;;;;;9.05;38.48;103026.44;146629;597;46010;-74
2022/03/19 13:36:38;;;;;;;;;15.25;14.00;;;;;9.14;39.47;103014.38;146631;591;45012;-75